createdAt,value
2017-07-22T00:01:47.074Z,19.87
2017-07-22T00:04:14.507Z,13.07
2017-07-22T00:06:41.939Z,17.23
2017-07-22T00:09:09.380Z,18.20
2017-07-22T00:11:36.817Z,15.43
2017-07-22T00:14:04.256Z,18.00
2017-07-22T00:16:31.691Z,16.07
2017-07-22T00:18:59.899Z,14.23
2017-07-22T00:21:27.329Z,19.23
2017-07-22T00:23:54.768Z,17.93
2017-07-22T00:26:22.972Z,17.13
2017-07-22T00:28:50.408Z,13.47
2017-07-22T00:31:18.608Z,17.80
2017-07-22T00:33:46.039Z,16.90
2017-07-22T00:36:14.236Z,14.80
2017-07-22T00:38:41.665Z,13.40
2017-07-22T00:41:09.100Z,12.00
2017-07-22T00:43:36.529Z,13.43
2017-07-22T00:46:03.967Z,17.67
2017-07-22T00:48:31.421Z,15.07
2017-07-22T00:50:58.856Z,15.00
2017-07-22T00:53:27.059Z,17.00
2017-07-22T00:55:55.508Z,15.03
2017-07-22T00:58:23.699Z,14.03
2017-07-22T01:00:51.129Z,12.40
2017-07-22T01:03:18.560Z,12.83
2017-07-22T01:05:46.000Z,14.50
2017-07-22T01:08:13.435Z,28.17
2017-07-22T01:10:40.875Z,14.70
2017-07-22T01:13:08.307Z,14.17
2017-07-22T01:15:35.744Z,15.10
2017-07-22T01:18:03.180Z,14.77
2017-07-22T01:20:30.645Z,18.20
2017-07-22T01:22:58.060Z,18.90
2017-07-22T01:25:25.512Z,17.93
2017-07-22T01:27:52.945Z,19.07
2017-07-22T01:30:20.368Z,13.00
2017-07-22T01:32:47.811Z,15.30
2017-07-22T01:35:15.239Z,14.03
2017-07-22T01:37:42.673Z,16.20
2017-07-22T01:40:10.100Z,14.97
2017-07-22T01:42:37.543Z,13.73
2017-07-22T01:45:04.971Z,15.57
2017-07-22T01:47:32.407Z,17.30
2017-07-22T01:50:00.608Z,16.03
2017-07-22T01:52:28.045Z,13.43
2017-07-22T01:54:56.258Z,16.23
2017-07-22T01:57:23.693Z,13.27
2017-07-22T01:59:51.135Z,18.90
2017-07-22T02:02:19.352Z,20.47
2017-07-22T02:04:46.771Z,21.30
2017-07-22T02:07:14.228Z,18.00
2017-07-22T02:09:41.659Z,19.00
2017-07-22T02:12:09.092Z,22.67
2017-07-22T02:14:36.532Z,19.40
2017-07-22T02:17:03.959Z,20.23
2017-07-22T02:19:31.403Z,23.50
2017-07-22T02:21:59.591Z,21.97
2017-07-22T02:24:27.028Z,19.67
2017-07-22T02:26:55.224Z,21.40
2017-07-22T02:29:22.668Z,23.50
2017-07-22T02:31:50.103Z,22.63
2017-07-22T02:34:17.539Z,21.10
2017-07-22T02:36:44.975Z,25.43
2017-07-22T02:39:12.412Z,24.87
2017-07-22T02:41:39.853Z,30.50
2017-07-22T02:44:07.288Z,29.40
2017-07-22T02:46:35.483Z,27.63
2017-07-22T02:49:02.925Z,29.43
2017-07-22T02:51:31.119Z,28.33
2017-07-22T02:53:58.547Z,29.07
2017-07-22T02:56:25.992Z,26.20
2017-07-22T02:58:53.443Z,23.27
2017-07-22T03:01:20.878Z,27.33
2017-07-22T03:03:48.329Z,27.53
2017-07-22T03:06:15.763Z,25.27
2017-07-22T03:08:43.200Z,22.77
2017-07-22T03:11:10.636Z,25.77
2017-07-22T03:13:38.069Z,19.53
2017-07-22T03:16:05.512Z,20.83
2017-07-22T03:18:32.963Z,22.03
2017-07-22T03:21:00.408Z,22.00
2017-07-22T03:23:27.836Z,21.73
2017-07-22T03:25:56.058Z,22.27
2017-07-22T03:28:23.502Z,25.20
2017-07-22T03:30:50.938Z,20.37
2017-07-22T03:33:19.132Z,25.67
2017-07-22T03:35:46.576Z,25.90
2017-07-22T03:38:14.004Z,27.50
2017-07-22T03:40:41.435Z,22.20
2017-07-22T03:43:08.876Z,20.83
2017-07-22T03:45:36.316Z,20.10
2017-07-22T03:48:03.745Z,25.03
2017-07-22T03:50:31.947Z,18.60
2017-07-22T03:52:59.383Z,23.03
2017-07-22T03:55:26.828Z,25.53
2017-07-22T03:57:55.028Z,22.40
2017-07-22T04:00:22.456Z,21.70
2017-07-22T04:02:50.659Z,23.33
2017-07-22T04:05:18.101Z,23.53
2017-07-22T04:07:46.293Z,27.50
2017-07-22T04:10:13.716Z,25.00
2017-07-22T04:12:41.924Z,22.50
2017-07-22T04:15:09.369Z,23.67
2017-07-22T04:17:36.809Z,17.90
2017-07-22T04:20:04.241Z,21.93
2017-07-22T04:22:31.722Z,25.63
2017-07-22T04:24:59.922Z,26.57
2017-07-22T04:27:27.352Z,25.03
2017-07-22T04:29:55.548Z,25.17
2017-07-22T04:32:22.984Z,24.60
2017-07-22T04:34:51.189Z,22.40
2017-07-22T04:37:18.625Z,23.23
2017-07-22T04:39:46.815Z,24.33
2017-07-22T04:42:14.255Z,27.00
2017-07-22T04:44:42.452Z,24.27
2017-07-22T04:47:09.892Z,25.87
2017-07-22T04:49:37.324Z,26.73
2017-07-22T04:52:04.766Z,22.87
2017-07-22T04:54:32.192Z,30.00
2017-07-22T04:56:59.657Z,24.67
2017-07-22T04:59:27.076Z,21.63
2017-07-22T05:01:54.508Z,22.60
2017-07-22T05:04:22.712Z,23.30
2017-07-22T05:06:50.147Z,21.63
2017-07-22T05:09:19.352Z,25.63
2017-07-22T05:11:46.780Z,20.87
2017-07-22T05:14:14.220Z,23.33
2017-07-22T05:16:41.648Z,20.67
2017-07-22T05:19:09.099Z,22.53
2017-07-22T05:21:36.543Z,21.03
2017-07-22T05:24:04.736Z,24.47
2017-07-22T05:26:32.202Z,23.77
2017-07-22T05:28:59.636Z,23.37
2017-07-22T05:31:27.068Z,23.67
2017-07-22T05:33:54.501Z,24.87
2017-07-22T05:36:21.930Z,21.77
2017-07-22T05:38:49.365Z,25.60
2017-07-22T05:41:16.796Z,27.10
2017-07-22T05:43:45.028Z,25.70
2017-07-22T05:46:12.456Z,24.43
2017-07-22T05:48:39.882Z,25.23
2017-07-22T05:51:07.344Z,27.30
2017-07-22T05:53:35.546Z,22.30
2017-07-22T05:56:02.980Z,27.83
2017-07-22T05:58:31.177Z,24.60
2017-07-22T06:00:58.617Z,23.10
2017-07-22T06:03:26.808Z,27.23
2017-07-22T06:05:54.239Z,31.10
2017-07-22T06:08:22.440Z,21.80
2017-07-22T06:10:49.880Z,25.43
2017-07-22T06:13:17.317Z,20.80
2017-07-22T06:15:45.608Z,23.67
2017-07-22T06:18:13.808Z,27.03
2017-07-22T06:20:41.256Z,21.30
2017-07-22T06:23:08.680Z,23.20
2017-07-22T06:25:37.085Z,18.30
2017-07-22T06:28:04.521Z,25.93
2017-07-22T06:30:32.743Z,19.33
2017-07-22T06:33:00.168Z,15.10
2017-07-22T06:35:27.604Z,16.10
2017-07-22T06:37:55.813Z,18.30
2017-07-22T06:40:23.248Z,17.50
2017-07-22T06:42:50.678Z,17.87
2017-07-22T06:45:18.103Z,20.00
2017-07-22T06:47:45.540Z,23.37
2017-07-22T06:50:12.972Z,23.03
2017-07-22T06:52:40.420Z,19.50
2017-07-22T06:55:07.848Z,21.87
2017-07-22T06:57:35.284Z,16.77
2017-07-22T07:00:03.505Z,15.03
2017-07-22T07:02:30.932Z,15.93
2017-07-22T07:04:58.360Z,14.60
2017-07-22T07:07:25.801Z,14.43
2017-07-22T07:09:53.224Z,11.50
2017-07-22T07:12:20.652Z,11.50
2017-07-22T07:14:48.079Z,10.20
2017-07-22T07:17:18.888Z,10.60
2017-07-22T07:19:47.081Z,7.20
2017-07-22T07:22:14.507Z,8.00
2017-07-22T07:24:42.700Z,8.33
2017-07-22T07:27:10.137Z,10.93
2017-07-22T07:29:38.604Z,10.00
2017-07-22T07:32:06.031Z,7.10
2017-07-22T07:34:33.621Z,8.10
2017-07-22T07:37:01.056Z,7.47
2017-07-22T07:39:28.513Z,8.43
2017-07-22T07:41:55.936Z,8.57
2017-07-22T07:44:23.362Z,6.07
2017-07-22T07:46:50.795Z,8.90
2017-07-22T07:49:18.230Z,6.17
2017-07-22T07:51:45.664Z,8.40
2017-07-22T07:54:13.121Z,6.67
2017-07-22T07:56:40.547Z,4.50
2017-07-22T07:59:07.968Z,5.70
2017-07-22T08:01:35.410Z,4.50
2017-07-22T08:04:02.842Z,5.37
2017-07-22T08:06:41.833Z,5.57
2017-07-22T08:09:09.304Z,11.03
2017-07-22T08:11:36.767Z,3.93
2017-07-22T08:14:04.248Z,5.20
2017-07-22T08:16:31.675Z,4.80
2017-07-22T08:18:59.879Z,5.67
2017-07-22T08:21:27.322Z,5.93
2017-07-22T08:23:58.239Z,5.40
2017-07-22T08:26:25.668Z,10.50
2017-07-22T08:28:53.096Z,6.67
2017-07-22T08:31:20.524Z,6.30
2017-07-22T08:33:47.944Z,6.60
2017-07-22T08:36:15.375Z,7.33
2017-07-22T08:38:42.820Z,6.03
2017-07-22T08:41:10.285Z,7.43
2017-07-22T08:43:37.720Z,8.50
2017-07-22T08:46:05.261Z,8.40
2017-07-22T08:48:32.684Z,11.67
2017-07-22T08:51:00.127Z,9.77
2017-07-22T08:53:27.554Z,10.37
2017-07-22T08:55:54.979Z,7.17
2017-07-22T08:58:22.409Z,7.00
2017-07-22T09:00:49.841Z,10.13
2017-07-22T09:03:17.267Z,7.43
2017-07-22T09:05:44.714Z,6.87
2017-07-22T09:08:12.136Z,10.40
2017-07-22T09:10:39.580Z,10.43
2017-07-22T09:13:07.068Z,9.17
2017-07-22T09:15:34.500Z,11.27
2017-07-22T09:18:02.587Z,9.63
2017-07-22T09:20:30.016Z,8.50
2017-07-22T09:22:57.516Z,7.17
2017-07-22T09:25:24.940Z,7.43
2017-07-22T09:27:52.377Z,7.53
2017-07-22T09:30:19.804Z,8.00
2017-07-22T09:32:47.231Z,7.13
2017-07-22T09:35:14.660Z,12.13
2017-07-22T09:37:42.107Z,7.30
2017-07-22T09:40:09.524Z,7.13
2017-07-22T09:42:36.947Z,8.13
2017-07-22T09:45:04.372Z,9.40
2017-07-22T09:47:31.807Z,7.00
2017-07-22T09:49:59.230Z,7.40
2017-07-22T09:52:26.660Z,6.93
2017-07-22T09:54:54.104Z,6.73
2017-07-22T09:57:21.511Z,6.83
2017-07-22T09:59:48.940Z,8.07
2017-07-22T10:02:16.387Z,7.70
2017-07-22T10:04:43.816Z,6.90
2017-07-22T10:07:11.264Z,7.23
2017-07-22T10:09:38.688Z,6.73
2017-07-22T10:12:06.116Z,7.07
2017-07-22T10:14:33.553Z,7.77
2017-07-22T10:17:00.985Z,8.70
2017-07-22T10:19:28.411Z,7.07
2017-07-22T10:21:55.832Z,6.90
2017-07-22T10:24:23.286Z,6.67
2017-07-22T10:26:50.708Z,6.70
2017-07-22T10:29:18.140Z,6.50
2017-07-22T10:31:46.331Z,6.93
2017-07-22T10:34:13.760Z,9.33
2017-07-22T10:36:41.223Z,7.90
2017-07-22T10:39:08.647Z,8.63
2017-07-22T10:41:36.071Z,8.10
2017-07-22T10:44:03.508Z,11.20
2017-07-22T10:46:30.931Z,8.73
2017-07-22T10:48:58.389Z,9.10
2017-07-22T10:51:25.818Z,12.10
2017-07-22T10:53:53.317Z,10.40
2017-07-22T10:56:20.739Z,9.10
2017-07-22T10:58:50.185Z,8.90
2017-07-22T11:01:19.384Z,11.83
2017-07-22T11:03:48.916Z,12.37
2017-07-22T11:06:16.352Z,10.53
2017-07-22T11:08:44.556Z,15.30
2017-07-22T11:11:11.992Z,15.00
2017-07-22T11:13:39.461Z,14.00
2017-07-22T11:16:06.897Z,14.77
2017-07-22T11:18:35.099Z,16.23
2017-07-22T11:21:02.539Z,13.30
2017-07-22T11:23:29.968Z,14.53
2017-07-22T11:25:57.400Z,17.07
2017-07-22T11:28:24.880Z,13.27
2017-07-22T11:30:52.359Z,6.20
2017-07-22T11:33:27.660Z,5.90
2017-07-22T11:35:55.164Z,4.73
2017-07-22T11:38:23.356Z,6.13
2017-07-22T11:40:51.801Z,5.00
2017-07-22T11:43:19.996Z,6.30
2017-07-22T11:45:47.452Z,5.00
2017-07-22T11:48:14.880Z,6.07
2017-07-22T11:50:42.304Z,4.33
2017-07-22T11:53:09.813Z,15.23
2017-07-22T11:55:38.079Z,8.40
2017-07-22T11:58:11.693Z,12.40
2017-07-22T12:00:39.887Z,9.13
2017-07-22T12:03:07.308Z,8.07
2017-07-22T12:05:34.731Z,6.03
2017-07-22T12:08:04.175Z,6.43
2017-07-22T12:10:32.369Z,8.83
2017-07-22T12:12:59.804Z,4.37
2017-07-22T12:15:27.260Z,4.47
2017-07-22T12:17:55.464Z,4.17
2017-07-22T12:20:22.888Z,4.70
2017-07-22T12:22:50.320Z,4.37
2017-07-22T12:25:18.834Z,4.70
2017-07-22T12:27:47.095Z,3.67
2017-07-22T12:30:14.559Z,5.20
2017-07-22T12:32:42.752Z,5.23
2017-07-22T12:35:10.189Z,4.27
2017-07-22T12:37:37.616Z,7.53
2017-07-22T12:40:05.075Z,3.10
2017-07-22T12:42:32.565Z,3.50
2017-07-22T12:44:59.991Z,3.50
2017-07-22T12:47:27.475Z,3.80
2017-07-22T12:49:55.128Z,3.73
2017-07-22T12:52:22.552Z,4.27
2017-07-22T12:54:49.983Z,3.60
2017-07-22T12:57:24.908Z,3.77
2017-07-22T12:59:52.396Z,3.33
2017-07-22T13:02:19.823Z,2.93
2017-07-22T13:04:47.252Z,3.10
2017-07-22T13:07:14.689Z,3.23
2017-07-22T13:09:42.937Z,4.13
2017-07-22T13:12:11.132Z,4.60
2017-07-22T13:14:38.552Z,5.60
2017-07-22T13:17:05.989Z,7.90
2017-07-22T13:19:33.419Z,5.33
2017-07-22T13:22:00.855Z,6.40
2017-07-22T13:24:28.339Z,7.17
2017-07-22T13:26:55.782Z,7.00
2017-07-22T13:29:23.212Z,6.83
2017-07-22T13:31:50.640Z,6.93
2017-07-22T13:34:18.068Z,11.23
2017-07-22T13:36:45.539Z,8.50
2017-07-22T13:39:12.965Z,6.50
2017-07-22T13:41:40.397Z,9.83
2017-07-22T13:44:09.843Z,8.10
2017-07-22T13:46:38.044Z,8.63
2017-07-22T13:49:05.476Z,10.70
2017-07-22T13:51:33.688Z,11.07
2017-07-22T13:54:01.121Z,12.07
2017-07-22T13:56:28.544Z,11.60
2017-07-22T13:58:55.980Z,9.87
2017-07-22T14:01:29.501Z,11.63
2017-07-22T14:03:56.980Z,11.07
2017-07-22T14:06:24.407Z,10.50
2017-07-22T14:08:51.844Z,5.73
2017-07-22T14:11:19.278Z,5.57
2017-07-22T14:13:46.704Z,9.53
2017-07-22T14:16:14.896Z,6.80
2017-07-22T14:18:42.349Z,5.63
2017-07-22T14:21:09.773Z,7.80
2017-07-22T14:23:37.201Z,7.33
2017-07-22T14:26:04.625Z,9.37
2017-07-22T14:28:32.060Z,7.37
2017-07-22T14:31:00.251Z,7.80
2017-07-22T14:33:27.684Z,9.97
2017-07-22T14:35:55.112Z,6.60
2017-07-22T14:38:22.557Z,10.37
2017-07-22T14:40:49.971Z,8.17
2017-07-22T14:43:17.412Z,10.80
2017-07-22T14:45:44.842Z,9.77
2017-07-22T14:48:12.269Z,7.60
2017-07-22T14:50:39.699Z,7.03
2017-07-22T14:53:07.888Z,6.60
2017-07-22T14:55:35.320Z,8.60
2017-07-22T14:58:02.745Z,5.53
2017-07-22T15:00:30.177Z,6.00
2017-07-22T15:02:57.599Z,8.00
2017-07-22T15:05:25.035Z,6.23
2017-07-22T15:07:52.451Z,6.43
2017-07-22T15:10:19.879Z,5.83
2017-07-22T15:12:47.303Z,5.13
2017-07-22T15:15:14.728Z,6.40
2017-07-22T15:17:42.163Z,5.43
2017-07-22T15:20:09.589Z,6.70
2017-07-22T15:22:37.780Z,7.00
2017-07-22T15:25:05.215Z,5.30
2017-07-22T15:27:32.644Z,5.47
2017-07-22T15:30:00.076Z,5.87
2017-07-22T15:32:27.508Z,6.60
2017-07-22T15:34:54.975Z,6.33
2017-07-22T15:37:22.448Z,6.10
2017-07-22T15:39:49.851Z,6.30
2017-07-22T15:42:17.283Z,5.43
2017-07-22T15:44:44.717Z,5.20
2017-07-22T15:47:12.165Z,5.10
2017-07-22T15:49:39.581Z,5.37
2017-07-22T15:52:07.009Z,6.30
2017-07-22T15:54:36.432Z,6.00
2017-07-22T15:57:03.859Z,6.37
2017-07-22T15:59:31.285Z,6.60
2017-07-22T16:01:58.723Z,5.63
2017-07-22T16:04:26.148Z,5.97
2017-07-22T16:06:53.580Z,5.37
2017-07-22T16:09:21.003Z,11.30
2017-07-22T16:11:48.432Z,6.70
2017-07-22T16:14:15.862Z,5.67
2017-07-22T16:16:43.292Z,6.60
2017-07-22T16:19:10.716Z,6.87
2017-07-22T16:21:38.148Z,10.10
2017-07-22T16:24:05.572Z,4.90
2017-07-22T16:26:33.995Z,4.77
2017-07-22T16:29:01.428Z,5.73
2017-07-22T16:31:28.848Z,5.10
2017-07-22T16:33:56.283Z,7.63
2017-07-22T16:36:23.699Z,6.17
2017-07-22T16:38:51.131Z,10.77
2017-07-22T16:41:18.563Z,7.90
2017-07-22T16:43:45.983Z,5.93
2017-07-22T16:46:14.175Z,6.17
2017-07-22T16:48:41.604Z,7.47
2017-07-22T16:51:09.033Z,11.53
2017-07-22T16:53:39.604Z,7.33
2017-07-22T16:56:07.796Z,6.13
2017-07-22T16:58:36.160Z,6.70
2017-07-22T17:01:03.583Z,7.83
2017-07-22T17:03:31.020Z,7.23
2017-07-22T17:05:58.447Z,10.87
2017-07-22T17:08:25.875Z,7.40
2017-07-22T17:10:54.069Z,7.77
2017-07-22T17:13:21.495Z,8.37
2017-07-22T17:15:48.933Z,6.97
2017-07-22T17:18:18.367Z,7.23
2017-07-22T17:20:47.776Z,7.83
2017-07-22T17:23:15.967Z,8.00
2017-07-22T17:25:43.412Z,6.07
2017-07-22T17:28:11.596Z,7.40
2017-07-22T17:30:39.033Z,7.13
2017-07-22T17:33:09.989Z,8.20
2017-07-22T17:35:52.116Z,7.83
2017-07-22T17:38:19.530Z,9.80
2017-07-22T17:40:47.735Z,8.20
2017-07-22T17:43:20.965Z,8.00
2017-07-22T17:45:48.404Z,8.53
2017-07-22T17:48:15.833Z,7.97
2017-07-22T17:50:43.261Z,7.03
2017-07-22T17:53:18.680Z,8.53
2017-07-22T17:55:46.163Z,5.93
2017-07-22T17:58:13.588Z,6.33
2017-07-22T18:00:44.972Z,7.83
2017-07-22T18:03:13.250Z,6.30
2017-07-22T18:05:40.684Z,6.37
2017-07-22T18:08:08.100Z,7.93
2017-07-22T18:10:35.544Z,8.17
2017-07-22T18:13:02.964Z,6.93
2017-07-22T18:15:30.399Z,7.67
2017-07-22T18:17:57.819Z,6.77
2017-07-22T18:20:29.868Z,6.00
2017-07-22T18:22:57.298Z,7.37
2017-07-22T18:25:24.729Z,9.60
2017-07-22T18:27:52.152Z,7.90
2017-07-22T18:30:19.593Z,8.83
2017-07-22T18:32:47.024Z,8.30
2017-07-22T18:35:14.460Z,6.67
2017-07-22T18:37:41.884Z,7.70
2017-07-22T18:40:09.303Z,7.20
2017-07-22T18:42:37.504Z,8.67
2017-07-22T18:45:04.933Z,7.83
2017-07-22T18:47:32.396Z,7.73
2017-07-22T18:50:00.583Z,7.80
2017-07-22T18:52:29.053Z,6.37
2017-07-22T18:55:02.819Z,7.67
2017-07-22T18:57:30.311Z,13.17
2017-07-22T18:59:57.768Z,5.80
2017-07-22T19:02:26.968Z,5.80
2017-07-22T19:04:55.292Z,5.93
2017-07-22T19:07:22.812Z,6.73
2017-07-22T19:09:53.028Z,5.93
2017-07-22T19:12:21.236Z,6.80
2017-07-22T19:14:49.677Z,5.63
2017-07-22T19:17:24.892Z,7.50
2017-07-22T19:19:53.287Z,5.27
2017-07-22T19:22:21.775Z,6.40
2017-07-22T19:24:49.963Z,9.47
2017-07-22T19:27:18.432Z,6.80
2017-07-22T19:29:47.620Z,6.67
2017-07-22T19:32:15.060Z,6.10
2017-07-22T19:34:42.490Z,8.60
2017-07-22T19:37:09.921Z,8.00
2017-07-22T19:39:37.352Z,8.37
2017-07-22T19:42:04.781Z,6.13
2017-07-22T19:44:32.212Z,7.70
2017-07-22T19:46:59.651Z,9.20
2017-07-22T19:49:27.079Z,7.03
2017-07-22T19:51:55.293Z,7.50
2017-07-22T19:54:23.241Z,7.40
2017-07-22T19:56:50.683Z,10.70
2017-07-22T19:59:18.107Z,9.57
2017-07-22T20:01:45.541Z,11.30
2017-07-22T20:04:12.967Z,6.17
2017-07-22T20:06:40.400Z,9.47
2017-07-22T20:09:07.831Z,7.60
2017-07-22T20:11:35.269Z,10.73
2017-07-22T20:14:02.700Z,10.27
2017-07-22T20:16:30.123Z,7.67
2017-07-22T20:18:57.560Z,7.77
2017-07-22T20:21:24.990Z,7.23
2017-07-22T20:23:52.423Z,9.00
2017-07-22T20:26:19.840Z,9.73
2017-07-22T20:28:47.276Z,8.00
2017-07-22T20:31:14.699Z,8.53
2017-07-22T20:33:42.135Z,11.57
2017-07-22T20:36:09.556Z,7.90
2017-07-22T20:38:36.999Z,8.50
2017-07-22T20:41:04.424Z,10.73
2017-07-22T20:43:31.860Z,15.00
2017-07-22T20:45:59.287Z,9.07
2017-07-22T20:48:26.715Z,9.37
2017-07-22T20:50:54.155Z,8.00
2017-07-22T20:53:21.577Z,8.67
2017-07-22T20:55:49.033Z,14.20
2017-07-22T20:58:16.479Z,11.03
2017-07-22T21:00:43.903Z,14.80
2017-07-22T21:03:11.336Z,15.27
2017-07-22T21:05:42.443Z,8.57
2017-07-22T21:08:10.696Z,22.93
2017-07-22T21:10:38.157Z,13.90
2017-07-22T21:13:05.581Z,13.40
2017-07-22T21:15:33.013Z,10.07
2017-07-22T21:18:01.107Z,12.63
2017-07-22T21:20:28.556Z,14.30
2017-07-22T21:22:56.001Z,11.40
2017-07-22T21:25:23.447Z,15.80
2017-07-22T21:27:51.634Z,11.50
2017-07-22T21:30:19.157Z,11.20
2017-07-22T21:32:46.592Z,12.20
2017-07-22T21:35:14.021Z,13.50
2017-07-22T21:37:41.453Z,13.10
2017-07-22T21:40:09.660Z,11.13
2017-07-22T21:42:40.766Z,14.60
2017-07-22T21:45:08.972Z,8.80
2017-07-22T21:47:36.404Z,10.97
2017-07-22T21:50:05.794Z,11.40
2017-07-22T21:52:33.988Z,10.00
2017-07-22T21:55:01.425Z,11.00
2017-07-22T21:57:29.622Z,17.30
2017-07-22T21:59:59.035Z,12.90
2017-07-22T22:02:26.469Z,12.17
2017-07-22T22:04:53.900Z,10.93
2017-07-22T22:07:21.346Z,11.20
2017-07-22T22:09:48.775Z,13.43
2017-07-22T22:12:16.212Z,12.13
2017-07-22T22:14:43.636Z,12.07
2017-07-22T22:17:11.840Z,11.73
2017-07-22T22:19:39.262Z,10.13
2017-07-22T22:22:06.730Z,13.07
2017-07-22T22:24:34.157Z,17.23
2017-07-22T22:27:01.601Z,11.97
2017-07-22T22:29:29.041Z,12.43
2017-07-22T22:31:56.504Z,15.27
2017-07-22T22:34:23.935Z,15.73
2017-07-22T22:36:51.380Z,16.40
2017-07-22T22:39:18.808Z,17.80
2017-07-22T22:41:46.298Z,10.17
2017-07-22T22:44:13.722Z,13.53
2017-07-22T22:46:41.192Z,8.67
2017-07-22T22:49:09.383Z,13.53
2017-07-22T22:51:36.808Z,9.73
2017-07-22T22:54:06.231Z,12.40
2017-07-22T22:56:33.644Z,15.93
2017-07-22T22:59:01.091Z,12.10
2017-07-22T23:01:28.516Z,10.97
2017-07-22T23:03:55.947Z,15.43
2017-07-22T23:06:24.145Z,11.00
2017-07-22T23:08:51.575Z,16.60
2017-07-22T23:11:19.784Z,12.67
2017-07-22T23:13:47.219Z,14.10
2017-07-22T23:16:15.583Z,12.10
2017-07-22T23:18:43.020Z,15.33
2017-07-22T23:21:10.450Z,10.53
2017-07-22T23:23:37.907Z,7.40
2017-07-22T23:26:05.324Z,9.40
2017-07-22T23:28:32.748Z,12.67
2017-07-22T23:31:00.181Z,6.57
2017-07-22T23:33:27.621Z,9.40
2017-07-22T23:35:55.044Z,13.63
2017-07-22T23:38:23.244Z,10.50
2017-07-22T23:40:50.663Z,8.47
2017-07-22T23:43:18.099Z,12.17
2017-07-22T23:45:45.527Z,13.07
2017-07-22T23:48:12.993Z,12.60
2017-07-22T23:50:40.416Z,19.23
2017-07-22T23:53:07.848Z,16.30
2017-07-22T23:55:36.045Z,14.07
2017-07-22T23:58:03.484Z,14.43
